sensor_id;sensor_type;location;lat;lon;timestamp;P1;durP1;ratioP1;P2;durP2;ratioP2
74415;SDS011;62850;42.428;25.618;2023-03-16T00:00:49;8.88;;;4.22;;
74415;SDS011;62850;42.428;25.618;2023-03-16T00:03:15;11.45;;;5.95;;
74415;SDS011;62850;42.428;25.618;2023-03-16T00:05:47;12.15;;;5.50;;
74415;SDS011;62850;42.428;25.618;2023-03-16T00:08:14;11.55;;;6.10;;
74415;SDS011;62850;42.428;25.618;2023-03-16T00:10:41;12.95;;;5.25;;
74415;SDS011;62850;42.428;25.618;2023-03-16T00:13:14;11.90;;;5.65;;
74415;SDS011;62850;42.428;25.618;2023-03-16T00:15:41;11.60;;;5.15;;
74415;SDS011;62850;42.428;25.618;2023-03-16T00:18:15;12.85;;;5.65;;
74415;SDS011;62850;42.428;25.618;2023-03-16T00:20:40;12.52;;;6.15;;
74415;SDS011;62850;42.428;25.618;2023-03-16T00:23:06;14.90;;;6.45;;
74415;SDS011;62850;42.428;25.618;2023-03-16T00:25:31;15.30;;;6.68;;
74415;SDS011;62850;42.428;25.618;2023-03-16T00:27:57;10.45;;;5.35;;
74415;SDS011;62850;42.428;25.618;2023-03-16T00:30:23;13.27;;;5.78;;
74415;SDS011;62850;42.428;25.618;2023-03-16T00:32:49;24.83;;;9.85;;
74415;SDS011;62850;42.428;25.618;2023-03-16T00:35:17;36.80;;;14.82;;
74415;SDS011;62850;42.428;25.618;2023-03-16T00:37:43;37.67;;;13.60;;
74415;SDS011;62850;42.428;25.618;2023-03-16T00:40:09;27.58;;;11.20;;
74415;SDS011;62850;42.428;25.618;2023-03-16T00:42:36;32.60;;;10.90;;
74415;SDS011;62850;42.428;25.618;2023-03-16T00:45:02;17.63;;;8.70;;
74415;SDS011;62850;42.428;25.618;2023-03-16T00:47:30;16.05;;;7.40;;
74415;SDS011;62850;42.428;25.618;2023-03-16T00:49:58;17.02;;;7.32;;
74415;SDS011;62850;42.428;25.618;2023-03-16T00:52:25;12.45;;;5.85;;
74415;SDS011;62850;42.428;25.618;2023-03-16T00:54:52;16.80;;;6.25;;
74415;SDS011;62850;42.428;25.618;2023-03-16T00:57:18;12.45;;;5.97;;
74415;SDS011;62850;42.428;25.618;2023-03-16T00:59:45;11.25;;;5.70;;
74415;SDS011;62850;42.428;25.618;2023-03-16T01:02:11;11.23;;;5.38;;
74415;SDS011;62850;42.428;25.618;2023-03-16T01:04:38;12.43;;;5.18;;
74415;SDS011;62850;42.428;25.618;2023-03-16T01:07:09;10.25;;;5.20;;
74415;SDS011;62850;42.428;25.618;2023-03-16T01:09:37;11.27;;;5.22;;
74415;SDS011;62850;42.428;25.618;2023-03-16T01:12:04;9.57;;;5.03;;
74415;SDS011;62850;42.428;25.618;2023-03-16T01:14:32;9.93;;;4.68;;
74415;SDS011;62850;42.428;25.618;2023-03-16T01:16:59;10.77;;;5.13;;
74415;SDS011;62850;42.428;25.618;2023-03-16T01:19:25;8.70;;;4.63;;
74415;SDS011;62850;42.428;25.618;2023-03-16T01:21:51;8.52;;;4.75;;
74415;SDS011;62850;42.428;25.618;2023-03-16T01:24:17;11.07;;;4.85;;
74415;SDS011;62850;42.428;25.618;2023-03-16T01:26:43;10.07;;;4.97;;
74415;SDS011;62850;42.428;25.618;2023-03-16T01:29:09;11.48;;;4.88;;
74415;SDS011;62850;42.428;25.618;2023-03-16T01:31:36;7.85;;;4.30;;
74415;SDS011;62850;42.428;25.618;2023-03-16T01:34:02;7.95;;;4.55;;
74415;SDS011;62850;42.428;25.618;2023-03-16T01:36:28;11.77;;;5.22;;
74415;SDS011;62850;42.428;25.618;2023-03-16T01:38:54;14.20;;;5.05;;
74415;SDS011;62850;42.428;25.618;2023-03-16T01:41:19;11.70;;;5.32;;
74415;SDS011;62850;42.428;25.618;2023-03-16T01:43:46;9.52;;;5.53;;
74415;SDS011;62850;42.428;25.618;2023-03-16T01:46:16;11.45;;;5.78;;
74415;SDS011;62850;42.428;25.618;2023-03-16T01:48:51;13.05;;;6.20;;
74415;SDS011;62850;42.428;25.618;2023-03-16T01:51:28;15.57;;;6.43;;
74415;SDS011;62850;42.428;25.618;2023-03-16T01:54:13;12.15;;;6.15;;
74415;SDS011;62850;42.428;25.618;2023-03-16T01:59:17;13.55;;;5.53;;
74415;SDS011;62850;42.428;25.618;2023-03-16T02:01:46;9.98;;;4.78;;
74415;SDS011;62850;42.428;25.618;2023-03-16T02:04:15;9.25;;;5.03;;
74415;SDS011;62850;42.428;25.618;2023-03-16T02:06:43;10.63;;;5.30;;
74415;SDS011;62850;42.428;25.618;2023-03-16T02:09:09;8.45;;;4.22;;
74415;SDS011;62850;42.428;25.618;2023-03-16T02:11:35;8.43;;;4.47;;
74415;SDS011;62850;42.428;25.618;2023-03-16T02:14:03;11.85;;;4.50;;
74415;SDS011;62850;42.428;25.618;2023-03-16T02:16:33;8.45;;;4.50;;
74415;SDS011;62850;42.428;25.618;2023-03-16T02:18:58;11.80;;;5.00;;
74415;SDS011;62850;42.428;25.618;2023-03-16T02:21:32;13.13;;;6.25;;
74415;SDS011;62850;42.428;25.618;2023-03-16T02:24:06;10.25;;;5.47;;
74415;SDS011;62850;42.428;25.618;2023-03-16T02:32:14;12.20;;;5.72;;
74415;SDS011;62850;42.428;25.618;2023-03-16T02:34:41;13.32;;;6.15;;
74415;SDS011;62850;42.428;25.618;2023-03-16T02:37:07;11.98;;;5.78;;
74415;SDS011;62850;42.428;25.618;2023-03-16T02:39:33;12.43;;;5.90;;
74415;SDS011;62850;42.428;25.618;2023-03-16T02:41:59;10.82;;;5.82;;
74415;SDS011;62850;42.428;25.618;2023-03-16T02:44:32;11.55;;;5.50;;
74415;SDS011;62850;42.428;25.618;2023-03-16T02:47:11;12.73;;;5.80;;
74415;SDS011;62850;42.428;25.618;2023-03-16T02:49:42;11.27;;;6.13;;
74415;SDS011;62850;42.428;25.618;2023-03-16T02:52:09;12.55;;;5.80;;
74415;SDS011;62850;42.428;25.618;2023-03-16T02:54:35;13.07;;;6.00;;
74415;SDS011;62850;42.428;25.618;2023-03-16T02:57:01;14.45;;;6.10;;
74415;SDS011;62850;42.428;25.618;2023-03-16T02:59:26;13.75;;;6.03;;
74415;SDS011;62850;42.428;25.618;2023-03-16T03:01:52;16.92;;;6.25;;
74415;SDS011;62850;42.428;25.618;2023-03-16T03:04:17;11.88;;;6.03;;
74415;SDS011;62850;42.428;25.618;2023-03-16T03:06:43;13.52;;;5.75;;
74415;SDS011;62850;42.428;25.618;2023-03-16T03:09:09;11.45;;;5.22;;
74415;SDS011;62850;42.428;25.618;2023-03-16T03:11:37;9.95;;;5.07;;
74415;SDS011;62850;42.428;25.618;2023-03-16T03:14:03;10.65;;;5.22;;
74415;SDS011;62850;42.428;25.618;2023-03-16T03:16:29;10.18;;;5.53;;
74415;SDS011;62850;42.428;25.618;2023-03-16T03:18:55;11.50;;;5.65;;
74415;SDS011;62850;42.428;25.618;2023-03-16T03:21:21;14.65;;;6.10;;
74415;SDS011;62850;42.428;25.618;2023-03-16T03:23:50;10.70;;;5.82;;
74415;SDS011;62850;42.428;25.618;2023-03-16T03:26:16;11.25;;;6.13;;
74415;SDS011;62850;42.428;25.618;2023-03-16T03:28:42;14.35;;;6.10;;
74415;SDS011;62850;42.428;25.618;2023-03-16T03:31:15;12.25;;;5.38;;
74415;SDS011;62850;42.428;25.618;2023-03-16T03:33:42;11.95;;;6.13;;
74415;SDS011;62850;42.428;25.618;2023-03-16T03:36:09;12.32;;;6.25;;
74415;SDS011;62850;42.428;25.618;2023-03-16T03:38:35;10.35;;;5.75;;
74415;SDS011;62850;42.428;25.618;2023-03-16T03:41:01;13.40;;;6.43;;
74415;SDS011;62850;42.428;25.618;2023-03-16T03:43:28;14.63;;;6.32;;
74415;SDS011;62850;42.428;25.618;2023-03-16T03:45:56;13.40;;;6.85;;
74415;SDS011;62850;42.428;25.618;2023-03-16T03:48:23;12.18;;;6.53;;
74415;SDS011;62850;42.428;25.618;2023-03-16T03:50:49;11.68;;;7.03;;
74415;SDS011;62850;42.428;25.618;2023-03-16T03:53:15;11.60;;;6.40;;
74415;SDS011;62850;42.428;25.618;2023-03-16T03:55:41;11.77;;;5.72;;
74415;SDS011;62850;42.428;25.618;2023-03-16T03:58:07;15.30;;;6.63;;
74415;SDS011;62850;42.428;25.618;2023-03-16T04:00:33;12.70;;;6.05;;
74415;SDS011;62850;42.428;25.618;2023-03-16T04:02:58;12.68;;;6.35;;
74415;SDS011;62850;42.428;25.618;2023-03-16T04:05:24;13.85;;;6.30;;
74415;SDS011;62850;42.428;25.618;2023-03-16T04:07:52;13.07;;;6.75;;
74415;SDS011;62850;42.428;25.618;2023-03-16T04:10:21;15.50;;;6.88;;
74415;SDS011;62850;42.428;25.618;2023-03-16T04:12:47;11.38;;;6.63;;
74415;SDS011;62850;42.428;25.618;2023-03-16T04:15:13;15.52;;;5.75;;
74415;SDS011;62850;42.428;25.618;2023-03-16T04:17:38;13.85;;;6.30;;
74415;SDS011;62850;42.428;25.618;2023-03-16T04:20:04;15.13;;;6.22;;
74415;SDS011;62850;42.428;25.618;2023-03-16T04:22:36;14.82;;;6.72;;
74415;SDS011;62850;42.428;25.618;2023-03-16T04:25:02;14.10;;;6.18;;
74415;SDS011;62850;42.428;25.618;2023-03-16T04:27:27;13.82;;;6.43;;
74415;SDS011;62850;42.428;25.618;2023-03-16T04:29:53;10.52;;;6.20;;
74415;SDS011;62850;42.428;25.618;2023-03-16T04:32:22;13.82;;;6.55;;
74415;SDS011;62850;42.428;25.618;2023-03-16T04:34:50;13.40;;;6.78;;
74415;SDS011;62850;42.428;25.618;2023-03-16T04:37:19;15.95;;;7.53;;
74415;SDS011;62850;42.428;25.618;2023-03-16T04:39:46;15.23;;;7.50;;
74415;SDS011;62850;42.428;25.618;2023-03-16T04:42:11;14.95;;;7.45;;
74415;SDS011;62850;42.428;25.618;2023-03-16T04:44:37;14.88;;;7.25;;
74415;SDS011;62850;42.428;25.618;2023-03-16T04:47:08;14.40;;;7.70;;
74415;SDS011;62850;42.428;25.618;2023-03-16T04:49:35;15.68;;;7.82;;
74415;SDS011;62850;42.428;25.618;2023-03-16T04:52:00;14.88;;;8.23;;
74415;SDS011;62850;42.428;25.618;2023-03-16T04:54:26;18.90;;;9.10;;
74415;SDS011;62850;42.428;25.618;2023-03-16T04:56:52;17.98;;;8.43;;
74415;SDS011;62850;42.428;25.618;2023-03-16T04:59:17;17.55;;;8.43;;
74415;SDS011;62850;42.428;25.618;2023-03-16T05:01:43;19.83;;;8.15;;
74415;SDS011;62850;42.428;25.618;2023-03-16T05:04:08;16.52;;;8.85;;
74415;SDS011;62850;42.428;25.618;2023-03-16T05:06:34;18.80;;;10.13;;
74415;SDS011;62850;42.428;25.618;2023-03-16T05:08:59;21.10;;;9.23;;
74415;SDS011;62850;42.428;25.618;2023-03-16T05:11:25;19.63;;;9.27;;
74415;SDS011;62850;42.428;25.618;2023-03-16T05:13:50;17.30;;;8.38;;
74415;SDS011;62850;42.428;25.618;2023-03-16T05:16:16;24.42;;;10.15;;
74415;SDS011;62850;42.428;25.618;2023-03-16T05:18:41;28.20;;;10.57;;
74415;SDS011;62850;42.428;25.618;2023-03-16T05:21:07;20.42;;;9.70;;
74415;SDS011;62850;42.428;25.618;2023-03-16T05:23:33;22.05;;;9.23;;
74415;SDS011;62850;42.428;25.618;2023-03-16T05:25:58;18.48;;;8.38;;
74415;SDS011;62850;42.428;25.618;2023-03-16T05:28:25;16.33;;;8.32;;
74415;SDS011;62850;42.428;25.618;2023-03-16T05:30:50;18.67;;;7.75;;
74415;SDS011;62850;42.428;25.618;2023-03-16T05:33:16;21.88;;;7.80;;
74415;SDS011;62850;42.428;25.618;2023-03-16T05:35:41;15.70;;;8.75;;
74415;SDS011;62850;42.428;25.618;2023-03-16T05:38:07;19.35;;;9.18;;
74415;SDS011;62850;42.428;25.618;2023-03-16T05:40:34;20.13;;;8.63;;
74415;SDS011;62850;42.428;25.618;2023-03-16T05:43:01;15.75;;;8.35;;
74415;SDS011;62850;42.428;25.618;2023-03-16T05:45:28;18.05;;;8.73;;
74415;SDS011;62850;42.428;25.618;2023-03-16T05:47:54;17.02;;;8.05;;
74415;SDS011;62850;42.428;25.618;2023-03-16T05:50:20;16.02;;;7.88;;
74415;SDS011;62850;42.428;25.618;2023-03-16T05:52:46;19.27;;;7.97;;
74415;SDS011;62850;42.428;25.618;2023-03-16T05:55:13;16.02;;;7.45;;
74415;SDS011;62850;42.428;25.618;2023-03-16T05:57:39;21.33;;;9.02;;
74415;SDS011;62850;42.428;25.618;2023-03-16T06:00:06;20.88;;;9.68;;
74415;SDS011;62850;42.428;25.618;2023-03-16T06:02:43;17.08;;;8.23;;
74415;SDS011;62850;42.428;25.618;2023-03-16T06:05:13;14.63;;;8.52;;
74415;SDS011;62850;42.428;25.618;2023-03-16T06:07:39;18.90;;;7.85;;
74415;SDS011;62850;42.428;25.618;2023-03-16T06:10:06;19.73;;;7.82;;
74415;SDS011;62850;42.428;25.618;2023-03-16T06:12:32;17.83;;;8.40;;
74415;SDS011;62850;42.428;25.618;2023-03-16T06:14:58;15.27;;;8.27;;
74415;SDS011;62850;42.428;25.618;2023-03-16T06:17:25;18.60;;;8.73;;
74415;SDS011;62850;42.428;25.618;2023-03-16T06:19:50;18.90;;;8.70;;
74415;SDS011;62850;42.428;25.618;2023-03-16T06:22:16;15.13;;;7.60;;
74415;SDS011;62850;42.428;25.618;2023-03-16T06:24:42;15.00;;;8.27;;
74415;SDS011;62850;42.428;25.618;2023-03-16T06:27:08;16.10;;;8.27;;
74415;SDS011;62850;42.428;25.618;2023-03-16T06:29:34;18.33;;;9.07;;
74415;SDS011;62850;42.428;25.618;2023-03-16T06:31:59;16.02;;;8.50;;
74415;SDS011;62850;42.428;25.618;2023-03-16T06:34:25;19.75;;;9.00;;
74415;SDS011;62850;42.428;25.618;2023-03-16T06:36:50;16.85;;;8.80;;
74415;SDS011;62850;42.428;25.618;2023-03-16T06:39:16;17.17;;;9.60;;
74415;SDS011;62850;42.428;25.618;2023-03-16T06:41:41;19.15;;;9.27;;
74415;SDS011;62850;42.428;25.618;2023-03-16T06:44:08;19.52;;;9.93;;
74415;SDS011;62850;42.428;25.618;2023-03-16T06:46:35;18.50;;;9.60;;
74415;SDS011;62850;42.428;25.618;2023-03-16T06:49:02;19.58;;;10.38;;
74415;SDS011;62850;42.428;25.618;2023-03-16T06:51:28;20.55;;;9.20;;
74415;SDS011;62850;42.428;25.618;2023-03-16T06:53:54;16.67;;;9.40;;
74415;SDS011;62850;42.428;25.618;2023-03-16T06:56:19;18.92;;;9.60;;
74415;SDS011;62850;42.428;25.618;2023-03-16T06:58:44;17.17;;;9.52;;
74415;SDS011;62850;42.428;25.618;2023-03-16T07:01:10;32.53;;;11.38;;
74415;SDS011;62850;42.428;25.618;2023-03-16T07:03:36;34.20;;;10.80;;
74415;SDS011;62850;42.428;25.618;2023-03-16T07:06:02;21.65;;;10.63;;
74415;SDS011;62850;42.428;25.618;2023-03-16T07:08:28;18.02;;;9.60;;
74415;SDS011;62850;42.428;25.618;2023-03-16T07:10:53;17.75;;;9.27;;
74415;SDS011;62850;42.428;25.618;2023-03-16T07:13:19;17.30;;;9.18;;
74415;SDS011;62850;42.428;25.618;2023-03-16T07:15:44;17.13;;;10.07;;
74415;SDS011;62850;42.428;25.618;2023-03-16T07:18:10;18.08;;;9.13;;
74415;SDS011;62850;42.428;25.618;2023-03-16T07:20:38;15.73;;;9.55;;
74415;SDS011;62850;42.428;25.618;2023-03-16T07:23:04;16.77;;;9.70;;
74415;SDS011;62850;42.428;25.618;2023-03-16T07:25:29;22.35;;;10.85;;
74415;SDS011;62850;42.428;25.618;2023-03-16T07:27:55;19.55;;;11.07;;
74415;SDS011;62850;42.428;25.618;2023-03-16T07:30:21;21.70;;;10.75;;
74415;SDS011;62850;42.428;25.618;2023-03-16T07:32:49;29.27;;;10.98;;
74415;SDS011;62850;42.428;25.618;2023-03-16T07:35:15;19.80;;;10.65;;
74415;SDS011;62850;42.428;25.618;2023-03-16T07:37:41;21.30;;;10.77;;
74415;SDS011;62850;42.428;25.618;2023-03-16T07:40:06;22.35;;;11.55;;
74415;SDS011;62850;42.428;25.618;2023-03-16T07:42:33;15.95;;;9.57;;
74415;SDS011;62850;42.428;25.618;2023-03-16T07:44:59;19.08;;;9.82;;
74415;SDS011;62850;42.428;25.618;2023-03-16T07:47:25;17.63;;;9.60;;
74415;SDS011;62850;42.428;25.618;2023-03-16T07:49:51;16.92;;;9.98;;
74415;SDS011;62850;42.428;25.618;2023-03-16T07:52:16;16.98;;;10.05;;
74415;SDS011;62850;42.428;25.618;2023-03-16T07:54:42;19.15;;;10.05;;
74415;SDS011;62850;42.428;25.618;2023-03-16T07:57:08;20.67;;;10.77;;
74415;SDS011;62850;42.428;25.618;2023-03-16T07:59:33;20.92;;;10.93;;
74415;SDS011;62850;42.428;25.618;2023-03-16T08:01:59;19.73;;;10.35;;
74415;SDS011;62850;42.428;25.618;2023-03-16T08:04:24;19.60;;;10.93;;
74415;SDS011;62850;42.428;25.618;2023-03-16T08:06:50;27.08;;;12.75;;
74415;SDS011;62850;42.428;25.618;2023-03-16T08:09:24;27.45;;;13.93;;
74415;SDS011;62850;42.428;25.618;2023-03-16T08:11:50;22.67;;;12.77;;
74415;SDS011;62850;42.428;25.618;2023-03-16T08:14:16;24.30;;;13.35;;
74415;SDS011;62850;42.428;25.618;2023-03-16T08:16:41;18.02;;;10.10;;
74415;SDS011;62850;42.428;25.618;2023-03-16T08:19:07;19.80;;;11.18;;
74415;SDS011;62850;42.428;25.618;2023-03-16T08:21:32;18.85;;;10.40;;
74415;SDS011;62850;42.428;25.618;2023-03-16T08:23:58;20.92;;;12.25;;
74415;SDS011;62850;42.428;25.618;2023-03-16T08:26:23;27.75;;;13.18;;
74415;SDS011;62850;42.428;25.618;2023-03-16T08:28:50;29.00;;;13.57;;
74415;SDS011;62850;42.428;25.618;2023-03-16T08:31:17;35.90;;;16.48;;
74415;SDS011;62850;42.428;25.618;2023-03-16T08:33:44;20.45;;;11.07;;
74415;SDS011;62850;42.428;25.618;2023-03-16T08:36:12;17.23;;;10.10;;
74415;SDS011;62850;42.428;25.618;2023-03-16T08:38:39;16.77;;;9.98;;
74415;SDS011;62850;42.428;25.618;2023-03-16T08:41:05;17.00;;;10.00;;
74415;SDS011;62850;42.428;25.618;2023-03-16T08:43:32;16.63;;;10.27;;
74415;SDS011;62850;42.428;25.618;2023-03-16T08:45:58;18.58;;;10.00;;
74415;SDS011;62850;42.428;25.618;2023-03-16T08:48:24;18.75;;;10.57;;
74415;SDS011;62850;42.428;25.618;2023-03-16T08:50:49;17.30;;;10.27;;
74415;SDS011;62850;42.428;25.618;2023-03-16T08:53:16;18.00;;;10.15;;
74415;SDS011;62850;42.428;25.618;2023-03-16T08:55:41;20.55;;;11.32;;
74415;SDS011;62850;42.428;25.618;2023-03-16T08:58:07;22.80;;;11.57;;
74415;SDS011;62850;42.428;25.618;2023-03-16T09:00:34;21.23;;;10.80;;
74415;SDS011;62850;42.428;25.618;2023-03-16T09:03:01;22.52;;;11.55;;
74415;SDS011;62850;42.428;25.618;2023-03-16T09:05:27;25.23;;;12.25;;
74415;SDS011;62850;42.428;25.618;2023-03-16T09:07:53;21.95;;;11.55;;
74415;SDS011;62850;42.428;25.618;2023-03-16T09:10:20;22.13;;;11.35;;
74415;SDS011;62850;42.428;25.618;2023-03-16T09:12:50;23.35;;;11.50;;
74415;SDS011;62850;42.428;25.618;2023-03-16T09:15:17;22.83;;;12.10;;
74415;SDS011;62850;42.428;25.618;2023-03-16T09:17:44;21.63;;;11.20;;
74415;SDS011;62850;42.428;25.618;2023-03-16T09:20:11;22.17;;;12.15;;
74415;SDS011;62850;42.428;25.618;2023-03-16T09:22:38;18.08;;;10.05;;
74415;SDS011;62850;42.428;25.618;2023-03-16T09:25:04;21.70;;;11.73;;
74415;SDS011;62850;42.428;25.618;2023-03-16T09:27:31;23.77;;;11.90;;
74415;SDS011;62850;42.428;25.618;2023-03-16T09:29:57;21.90;;;12.48;;
74415;SDS011;62850;42.428;25.618;2023-03-16T09:32:24;22.60;;;12.15;;
74415;SDS011;62850;42.428;25.618;2023-03-16T09:34:52;20.58;;;12.10;;
74415;SDS011;62850;42.428;25.618;2023-03-16T09:37:18;21.38;;;12.18;;
74415;SDS011;62850;42.428;25.618;2023-03-16T09:39:44;25.02;;;12.45;;
74415;SDS011;62850;42.428;25.618;2023-03-16T09:47:57;24.08;;;13.18;;
74415;SDS011;62850;42.428;25.618;2023-03-16T09:50:28;20.98;;;12.40;;
74415;SDS011;62850;42.428;25.618;2023-03-16T09:55:30;27.85;;;12.27;;
74415;SDS011;62850;42.428;25.618;2023-03-16T09:57:58;20.50;;;12.85;;
74415;SDS011;62850;42.428;25.618;2023-03-16T10:03:17;22.60;;;11.80;;
74415;SDS011;62850;42.428;25.618;2023-03-16T10:06:00;22.08;;;11.73;;
74415;SDS011;62850;42.428;25.618;2023-03-16T10:08:44;21.75;;;11.05;;
74415;SDS011;62850;42.428;25.618;2023-03-16T10:19:47;20.90;;;11.98;;
74415;SDS011;62850;42.428;25.618;2023-03-16T10:22:21;18.88;;;11.25;;
74415;SDS011;62850;42.428;25.618;2023-03-16T10:27:41;21.35;;;11.60;;
74415;SDS011;62850;42.428;25.618;2023-03-16T10:30:22;18.90;;;10.88;;
74415;SDS011;62850;42.428;25.618;2023-03-16T10:32:52;21.15;;;11.18;;
74415;SDS011;62850;42.428;25.618;2023-03-16T10:35:26;19.80;;;11.13;;
74415;SDS011;62850;42.428;25.618;2023-03-16T10:37:53;18.75;;;10.68;;
74415;SDS011;62850;42.428;25.618;2023-03-16T10:40:20;16.63;;;9.75;;
74415;SDS011;62850;42.428;25.618;2023-03-16T10:42:47;15.63;;;9.43;;
74415;SDS011;62850;42.428;25.618;2023-03-16T10:45:31;16.98;;;8.88;;
74415;SDS011;62850;42.428;25.618;2023-03-16T10:48:06;18.10;;;9.20;;
74415;SDS011;62850;42.428;25.618;2023-03-16T10:50:33;20.95;;;9.75;;
74415;SDS011;62850;42.428;25.618;2023-03-16T10:52:58;16.80;;;8.15;;
74415;SDS011;62850;42.428;25.618;2023-03-16T10:55:27;16.90;;;8.60;;
74415;SDS011;62850;42.428;25.618;2023-03-16T10:57:56;17.15;;;9.20;;
74415;SDS011;62850;42.428;25.618;2023-03-16T11:00:26;16.92;;;9.98;;
74415;SDS011;62850;42.428;25.618;2023-03-16T11:03:20;13.02;;;7.20;;
74415;SDS011;62850;42.428;25.618;2023-03-16T11:06:03;6.25;;;3.28;;
74415;SDS011;62850;42.428;25.618;2023-03-16T11:08:39;8.43;;;2.80;;
74415;SDS011;62850;42.428;25.618;2023-03-16T11:11:10;4.68;;;2.40;;
74415;SDS011;62850;42.428;25.618;2023-03-16T11:18:57;5.35;;;2.80;;
74415;SDS011;62850;42.428;25.618;2023-03-16T11:24:20;4.35;;;2.20;;
74415;SDS011;62850;42.428;25.618;2023-03-16T11:26:54;4.32;;;2.00;;
74415;SDS011;62850;42.428;25.618;2023-03-16T11:32:03;5.53;;;2.58;;
74415;SDS011;62850;42.428;25.618;2023-03-16T11:34:34;7.50;;;3.35;;
74415;SDS011;62850;42.428;25.618;2023-03-16T11:37:12;7.07;;;2.55;;
74415;SDS011;62850;42.428;25.618;2023-03-16T11:51:03;6.07;;;2.47;;
74415;SDS011;62850;42.428;25.618;2023-03-16T11:58:51;6.15;;;2.30;;
74415;SDS011;62850;42.428;25.618;2023-03-16T12:17:41;6.03;;;2.60;;
74415;SDS011;62850;42.428;25.618;2023-03-16T12:20:21;8.02;;;3.75;;
74415;SDS011;62850;42.428;25.618;2023-03-16T12:22:51;5.57;;;2.67;;
74415;SDS011;62850;42.428;25.618;2023-03-16T12:25:30;5.57;;;2.72;;
74415;SDS011;62850;42.428;25.618;2023-03-16T12:28:01;6.53;;;2.75;;
74415;SDS011;62850;42.428;25.618;2023-03-16T12:33:42;4.13;;;1.90;;
74415;SDS011;62850;42.428;25.618;2023-03-16T12:38:46;9.57;;;3.17;;
74415;SDS011;62850;42.428;25.618;2023-03-16T12:49:39;4.90;;;1.90;;
74415;SDS011;62850;42.428;25.618;2023-03-16T12:52:09;3.92;;;1.83;;
74415;SDS011;62850;42.428;25.618;2023-03-16T12:54:52;3.58;;;1.80;;
74415;SDS011;62850;42.428;25.618;2023-03-16T12:57:29;6.15;;;1.95;;
74415;SDS011;62850;42.428;25.618;2023-03-16T12:59:56;3.80;;;1.73;;
74415;SDS011;62850;42.428;25.618;2023-03-16T13:02:25;5.30;;;2.30;;
74415;SDS011;62850;42.428;25.618;2023-03-16T13:04:58;4.07;;;1.88;;
74415;SDS011;62850;42.428;25.618;2023-03-16T13:07:35;5.95;;;2.45;;
74415;SDS011;62850;42.428;25.618;2023-03-16T13:10:07;7.65;;;2.35;;
74415;SDS011;62850;42.428;25.618;2023-03-16T13:12:38;5.43;;;2.25;;
74415;SDS011;62850;42.428;25.618;2023-03-16T13:20:32;5.97;;;2.78;;
74415;SDS011;62850;42.428;25.618;2023-03-16T13:23:20;5.95;;;2.55;;
74415;SDS011;62850;42.428;25.618;2023-03-16T13:28:35;4.90;;;2.03;;
74415;SDS011;62850;42.428;25.618;2023-03-16T13:31:03;5.03;;;2.15;;
74415;SDS011;62850;42.428;25.618;2023-03-16T13:33:30;10.02;;;4.03;;
74415;SDS011;62850;42.428;25.618;2023-03-16T13:36:01;6.47;;;3.17;;
74415;SDS011;62850;42.428;25.618;2023-03-16T13:38:28;7.80;;;2.88;;
74415;SDS011;62850;42.428;25.618;2023-03-16T13:40:55;7.53;;;2.22;;
74415;SDS011;62850;42.428;25.618;2023-03-16T13:43:26;4.72;;;2.20;;
74415;SDS011;62850;42.428;25.618;2023-03-16T13:45:53;6.88;;;3.17;;
74415;SDS011;62850;42.428;25.618;2023-03-16T13:48:19;5.63;;;3.15;;
74415;SDS011;62850;42.428;25.618;2023-03-16T13:50:55;6.55;;;2.75;;
74415;SDS011;62850;42.428;25.618;2023-03-16T13:55:54;5.35;;;2.40;;
74415;SDS011;62850;42.428;25.618;2023-03-16T13:58:22;5.78;;;2.53;;
74415;SDS011;62850;42.428;25.618;2023-03-16T14:00:59;4.28;;;2.10;;
74415;SDS011;62850;42.428;25.618;2023-03-16T14:03:45;10.90;;;2.67;;
74415;SDS011;62850;42.428;25.618;2023-03-16T14:06:23;4.95;;;2.13;;
74415;SDS011;62850;42.428;25.618;2023-03-16T14:08:56;4.93;;;2.88;;
74415;SDS011;62850;42.428;25.618;2023-03-16T14:11:25;4.25;;;2.20;;
74415;SDS011;62850;42.428;25.618;2023-03-16T14:13:53;4.78;;;2.30;;
74415;SDS011;62850;42.428;25.618;2023-03-16T14:16:21;3.92;;;2.10;;
74415;SDS011;62850;42.428;25.618;2023-03-16T14:19:13;5.53;;;2.13;;
74415;SDS011;62850;42.428;25.618;2023-03-16T14:21:42;5.05;;;2.00;;
74415;SDS011;62850;42.428;25.618;2023-03-16T14:26:56;5.70;;;2.05;;
74415;SDS011;62850;42.428;25.618;2023-03-16T14:29:34;4.60;;;2.10;;
74415;SDS011;62850;42.428;25.618;2023-03-16T14:31:59;3.88;;;1.95;;
74415;SDS011;62850;42.428;25.618;2023-03-16T14:37:04;6.10;;;2.72;;
74415;SDS011;62850;42.428;25.618;2023-03-16T14:39:33;5.22;;;2.35;;
74415;SDS011;62850;42.428;25.618;2023-03-16T14:42:00;3.88;;;2.03;;
74415;SDS011;62850;42.428;25.618;2023-03-16T14:44:29;3.60;;;1.73;;
74415;SDS011;62850;42.428;25.618;2023-03-16T14:46:57;3.45;;;1.65;;
74415;SDS011;62850;42.428;25.618;2023-03-16T14:49:29;3.75;;;1.75;;
74415;SDS011;62850;42.428;25.618;2023-03-16T14:54:26;4.68;;;2.10;;
74415;SDS011;62850;42.428;25.618;2023-03-16T14:56:54;4.35;;;1.80;;
74415;SDS011;62850;42.428;25.618;2023-03-16T15:01:49;5.00;;;1.90;;
74415;SDS011;62850;42.428;25.618;2023-03-16T15:04:18;6.07;;;2.30;;
74415;SDS011;62850;42.428;25.618;2023-03-16T15:06:49;5.88;;;2.38;;
74415;SDS011;62850;42.428;25.618;2023-03-16T15:09:34;4.78;;;2.10;;
74415;SDS011;62850;42.428;25.618;2023-03-16T15:12:03;8.05;;;2.30;;
74415;SDS011;62850;42.428;25.618;2023-03-16T15:14:35;6.78;;;2.58;;
74415;SDS011;62850;42.428;25.618;2023-03-16T15:17:18;4.30;;;1.95;;
74415;SDS011;62850;42.428;25.618;2023-03-16T15:19:44;3.10;;;1.40;;
74415;SDS011;62850;42.428;25.618;2023-03-16T15:22:09;4.97;;;2.13;;
74415;SDS011;62850;42.428;25.618;2023-03-16T15:24:37;3.25;;;1.55;;
74415;SDS011;62850;42.428;25.618;2023-03-16T15:27:04;3.22;;;1.60;;
74415;SDS011;62850;42.428;25.618;2023-03-16T15:29:42;2.58;;;1.38;;
74415;SDS011;62850;42.428;25.618;2023-03-16T15:32:10;4.70;;;2.00;;
74415;SDS011;62850;42.428;25.618;2023-03-16T15:34:37;6.68;;;2.85;;
74415;SDS011;62850;42.428;25.618;2023-03-16T15:37:02;6.65;;;2.58;;
74415;SDS011;62850;42.428;25.618;2023-03-16T15:39:28;3.40;;;1.60;;
74415;SDS011;62850;42.428;25.618;2023-03-16T15:41:53;5.65;;;1.70;;
74415;SDS011;62850;42.428;25.618;2023-03-16T15:44:19;6.53;;;1.95;;
74415;SDS011;62850;42.428;25.618;2023-03-16T15:46:45;4.30;;;1.83;;
74415;SDS011;62850;42.428;25.618;2023-03-16T15:49:11;3.55;;;1.77;;
74415;SDS011;62850;42.428;25.618;2023-03-16T15:51:37;6.72;;;2.17;;
74415;SDS011;62850;42.428;25.618;2023-03-16T15:54:03;5.00;;;1.80;;
74415;SDS011;62850;42.428;25.618;2023-03-16T15:56:33;4.70;;;1.80;;
74415;SDS011;62850;42.428;25.618;2023-03-16T15:59:02;3.95;;;2.28;;
74415;SDS011;62850;42.428;25.618;2023-03-16T16:01:36;4.72;;;2.30;;
74415;SDS011;62850;42.428;25.618;2023-03-16T16:04:13;4.65;;;1.70;;
74415;SDS011;62850;42.428;25.618;2023-03-16T16:06:41;5.30;;;2.03;;
74415;SDS011;62850;42.428;25.618;2023-03-16T16:09:07;8.82;;;3.03;;
74415;SDS011;62850;42.428;25.618;2023-03-16T16:11:33;6.82;;;2.08;;
74415;SDS011;62850;42.428;25.618;2023-03-16T16:13:58;4.28;;;1.95;;
74415;SDS011;62850;42.428;25.618;2023-03-16T16:16:27;6.70;;;1.85;;
74415;SDS011;62850;42.428;25.618;2023-03-16T16:18:53;4.07;;;1.90;;